createdAt,value
2023-02-21T00:02:19.083Z,19.41
2023-02-21T00:05:07.511Z,19.47
2023-02-21T00:07:55.572Z,19.47
2023-02-21T00:10:43.189Z,19.50
2023-02-21T00:13:28.412Z,19.53
2023-02-21T00:16:16.162Z,19.55
2023-02-21T00:19:01.280Z,19.56
2023-02-21T00:21:47.713Z,19.54
2023-02-21T00:24:33.905Z,19.58
2023-02-21T00:27:24.462Z,19.57
2023-02-21T00:30:09.767Z,19.60
2023-02-21T00:32:55.105Z,19.62
2023-02-21T00:35:43.039Z,19.60
2023-02-21T00:38:29.196Z,19.61
2023-02-21T00:41:14.592Z,19.60
2023-02-21T00:44:00.352Z,19.60
2023-02-21T00:46:45.509Z,19.65
2023-02-21T00:49:30.666Z,19.65
2023-02-21T00:52:15.808Z,19.60
2023-02-21T00:55:00.974Z,19.65
2023-02-21T00:57:46.231Z,19.66
2023-02-21T01:00:39.570Z,19.67
2023-02-21T01:03:28.122Z,19.67
2023-02-21T01:06:13.269Z,19.67
2023-02-21T01:09:05.541Z,19.69
2023-02-21T01:11:51.374Z,19.71
2023-02-21T01:14:36.648Z,19.71
2023-02-21T01:17:21.822Z,19.70
2023-02-21T01:20:06.914Z,19.71
2023-02-21T01:22:54.820Z,19.72
2023-02-21T01:25:39.972Z,19.60
2023-02-21T01:28:25.801Z,19.68
2023-02-21T01:31:13.810Z,19.71
2023-02-21T01:33:59.855Z,19.72
2023-02-21T01:36:48.380Z,19.73
2023-02-21T01:39:33.491Z,19.73
2023-02-21T01:42:21.057Z,19.75
2023-02-21T01:45:06.894Z,19.76
2023-02-21T01:47:55.047Z,19.75
2023-02-21T01:50:48.293Z,19.71
2023-02-21T01:53:37.430Z,19.75
2023-02-21T01:56:22.719Z,19.73
2023-02-21T01:59:12.066Z,19.77
2023-02-21T02:02:08.378Z,19.71
2023-02-21T02:04:53.641Z,19.76
2023-02-21T02:07:38.799Z,19.79
2023-02-21T02:10:24.612Z,19.76
2023-02-21T02:13:03.266Z,19.76
2023-02-21T02:15:33.019Z,19.76
2023-02-21T02:18:02.640Z,19.79
2023-02-21T02:20:41.367Z,19.80
2023-02-21T02:23:28.176Z,19.79
2023-02-21T02:26:08.897Z,19.83
2023-02-21T02:28:59.060Z,19.84
2023-02-21T02:31:47.505Z,19.82
2023-02-21T02:34:38.726Z,19.79
2023-02-21T02:37:25.835Z,19.82
2023-02-21T02:40:07.575Z,19.84
2023-02-21T02:43:10.345Z,19.84
2023-02-21T02:45:49.057Z,19.82
2023-02-21T02:48:28.074Z,19.81
2023-02-21T02:50:54.755Z,19.82
2023-02-21T02:53:28.606Z,19.82
2023-02-21T02:56:00.763Z,19.82
2023-02-21T02:58:35.081Z,19.81
2023-02-21T03:01:23.589Z,19.83
2023-02-21T03:03:56.752Z,19.83
2023-02-21T03:06:30.153Z,19.81
2023-02-21T03:09:11.709Z,19.82
2023-02-21T03:11:44.095Z,19.80
2023-02-21T03:14:16.061Z,19.83
2023-02-21T03:16:54.084Z,19.82
2023-02-21T03:19:26.489Z,19.84
2023-02-21T03:21:56.909Z,19.81
2023-02-21T03:24:25.829Z,19.83
2023-02-21T03:26:56.968Z,19.85
2023-02-21T03:29:23.440Z,19.83
2023-02-21T03:31:55.435Z,19.83
2023-02-21T03:34:22.204Z,19.83
2023-02-21T03:36:49.122Z,19.84
2023-02-21T03:39:18.120Z,19.82
2023-02-21T03:41:44.867Z,19.82
2023-02-21T03:44:13.869Z,19.81
2023-02-21T03:46:42.758Z,19.81
2023-02-21T03:49:09.486Z,19.81
2023-02-21T03:51:36.129Z,19.81
2023-02-21T03:54:03.802Z,19.83
2023-02-21T03:56:41.473Z,19.81
2023-02-21T03:59:09.050Z,19.83
2023-02-21T04:01:37.877Z,19.85
2023-02-21T04:04:06.747Z,19.84
2023-02-21T04:06:36.437Z,19.84
2023-02-21T04:09:05.206Z,19.85
2023-02-21T04:11:34.585Z,19.85
2023-02-21T04:14:04.655Z,19.86
2023-02-21T04:16:34.503Z,19.85
2023-02-21T04:19:01.191Z,19.85
2023-02-21T04:21:27.830Z,19.84
2023-02-21T04:23:54.475Z,19.85
2023-02-21T04:26:25.756Z,19.87
2023-02-21T04:28:52.652Z,19.88
2023-02-21T04:31:23.972Z,19.82
2023-02-21T04:34:02.443Z,19.84
2023-02-21T04:36:32.672Z,19.85
2023-02-21T04:38:59.265Z,19.85
2023-02-21T04:41:30.697Z,19.86
2023-02-21T04:43:59.513Z,19.84
2023-02-21T04:46:26.208Z,19.81
2023-02-21T04:48:55.546Z,19.81
2023-02-21T04:51:25.168Z,19.82
2023-02-21T04:53:51.999Z,19.83
2023-02-21T04:56:21.004Z,19.83
2023-02-21T04:58:48.273Z,19.81
2023-02-21T05:01:20.634Z,19.82
2023-02-21T05:03:49.992Z,19.80
2023-02-21T05:06:24.956Z,19.83
2023-02-21T05:08:51.829Z,19.82
2023-02-21T05:11:21.127Z,19.82
2023-02-21T05:13:50.873Z,19.78
2023-02-21T05:16:20.233Z,19.77
2023-02-21T05:18:47.650Z,19.78
2023-02-21T05:21:17.433Z,19.77
2023-02-21T05:23:55.902Z,19.75
2023-02-21T05:26:27.090Z,19.74
2023-02-21T05:28:56.947Z,19.73
2023-02-21T05:31:23.957Z,19.74
2023-02-21T05:33:50.728Z,19.75
2023-02-21T05:36:19.600Z,19.75
2023-02-21T05:38:52.503Z,19.76
2023-02-21T05:41:19.672Z,19.74
2023-02-21T05:43:52.126Z,19.73
2023-02-21T05:46:21.675Z,19.72
2023-02-21T05:48:50.866Z,19.77
2023-02-21T05:51:17.746Z,19.79
2023-02-21T05:53:46.810Z,19.80
2023-02-21T05:56:15.709Z,19.80
2023-02-21T05:58:42.564Z,19.81
2023-02-21T06:01:09.205Z,19.81
2023-02-21T06:03:35.970Z,19.76
2023-02-21T06:06:05.014Z,19.81
2023-02-21T06:08:31.754Z,19.82
2023-02-21T06:11:03.140Z,19.84
2023-02-21T06:13:30.849Z,19.92
2023-02-21T06:15:58.867Z,19.97
2023-02-21T06:18:30.227Z,19.97
2023-02-21T06:20:56.846Z,19.99
2023-02-21T06:23:23.532Z,20.06
2023-02-21T06:25:50.157Z,20.04
2023-02-21T06:28:18.930Z,20.03
2023-02-21T06:30:45.692Z,20.04
2023-02-21T06:33:14.548Z,20.06
2023-02-21T06:35:45.822Z,20.03
2023-02-21T06:38:17.294Z,20.05
2023-02-21T06:40:44.358Z,20.03
2023-02-21T06:43:10.965Z,20.08
2023-02-21T06:45:39.746Z,20.11
2023-02-21T06:48:08.869Z,20.12
2023-02-21T06:50:40.258Z,20.18
2023-02-21T06:53:09.756Z,20.21
2023-02-21T06:55:36.462Z,20.25
2023-02-21T06:58:05.426Z,20.26
2023-02-21T07:00:34.267Z,20.28
2023-02-21T07:03:03.125Z,20.28
2023-02-21T07:05:34.536Z,20.23
2023-02-21T07:08:01.953Z,20.28
2023-02-21T07:10:31.505Z,20.18
2023-02-21T07:13:00.766Z,18.80
2023-02-21T07:15:27.778Z,17.64
2023-02-21T07:17:55.448Z,16.85
2023-02-21T07:20:25.620Z,16.59
2023-02-21T07:22:56.109Z,16.38
2023-02-21T07:25:28.475Z,16.62
2023-02-21T07:27:59.718Z,16.49
2023-02-21T07:30:32.234Z,16.29
2023-02-21T07:33:03.527Z,16.14
2023-02-21T07:35:32.569Z,16.01
2023-02-21T07:38:04.486Z,15.81
2023-02-21T07:40:33.584Z,16.20
2023-02-21T07:43:02.393Z,17.20
2023-02-21T07:45:30.720Z,17.99
2023-02-21T07:48:01.470Z,18.20
2023-02-21T07:50:30.504Z,18.32
2023-02-21T07:53:00.426Z,18.43
2023-02-21T07:55:27.024Z,18.52
2023-02-21T07:57:56.037Z,18.73
2023-02-21T08:00:25.981Z,18.77
2023-02-21T08:02:52.818Z,18.84
2023-02-21T08:05:22.362Z,18.84
2023-02-21T08:07:54.275Z,18.77
2023-02-21T08:10:26.276Z,18.82
2023-02-21T08:12:54.417Z,18.85
2023-02-21T08:15:23.300Z,18.85
2023-02-21T08:17:50.159Z,18.91
2023-02-21T08:20:19.524Z,18.95
2023-02-21T08:22:48.934Z,19.01
2023-02-21T08:25:21.312Z,19.06
2023-02-21T08:27:53.513Z,19.11
2023-02-21T08:30:22.477Z,19.16
2023-02-21T08:32:51.450Z,19.24
2023-02-21T08:35:19.272Z,19.30
2023-02-21T08:37:55.805Z,19.31
2023-02-21T08:40:25.520Z,19.37
2023-02-21T08:42:53.256Z,19.45
2023-02-21T08:45:23.144Z,19.50
2023-02-21T08:47:52.975Z,19.53
2023-02-21T08:50:22.770Z,19.55
2023-02-21T08:52:52.691Z,19.59
2023-02-21T08:55:19.812Z,19.64
2023-02-21T08:57:48.840Z,19.62
2023-02-21T09:00:15.933Z,19.70
2023-02-21T09:02:42.595Z,19.73
2023-02-21T09:05:16.727Z,19.75
2023-02-21T09:07:43.387Z,19.75
2023-02-21T09:10:10.841Z,19.81
2023-02-21T09:12:41.308Z,19.83
2023-02-21T09:15:10.627Z,19.85
2023-02-21T09:17:39.434Z,19.88
2023-02-21T09:20:07.715Z,19.91
2023-02-21T09:22:34.511Z,19.89
2023-02-21T09:25:05.883Z,20.03
2023-02-21T09:27:38.613Z,20.04
2023-02-21T09:30:06.752Z,20.15
2023-02-21T09:32:36.798Z,20.28
2023-02-21T09:35:03.936Z,20.41
2023-02-21T09:37:32.754Z,20.50
2023-02-21T09:40:00.025Z,20.59
2023-02-21T09:42:31.934Z,20.67
2023-02-21T09:44:58.873Z,20.76
2023-02-21T09:47:30.881Z,20.83
2023-02-21T09:50:13.176Z,20.91
2023-02-21T09:52:40.870Z,20.91
2023-02-21T09:55:24.456Z,20.85
2023-02-21T09:57:51.054Z,20.94
2023-02-21T10:00:33.189Z,20.99
2023-02-21T10:03:11.169Z,20.96
2023-02-21T10:06:16.192Z,20.96
2023-02-21T10:09:02.922Z,20.95
2023-02-21T10:11:55.869Z,20.97
2023-02-21T10:14:33.561Z,20.96
2023-02-21T10:17:22.851Z,20.99
2023-02-21T10:19:54.486Z,20.98
2023-02-21T10:22:26.208Z,20.95
2023-02-21T10:24:55.106Z,20.92
2023-02-21T10:27:24.682Z,20.92
2023-02-21T10:30:05.505Z,20.91
2023-02-21T10:32:32.578Z,20.95
2023-02-21T10:34:59.471Z,20.97
2023-02-21T10:37:39.335Z,21.00
2023-02-21T10:40:26.136Z,21.05
2023-02-21T10:42:56.712Z,21.08
2023-02-21T10:45:27.754Z,21.10
2023-02-21T10:48:04.517Z,21.16
2023-02-21T10:50:44.839Z,21.22
2023-02-21T10:53:26.762Z,21.26
2023-02-21T10:56:15.424Z,21.30
2023-02-21T10:59:05.417Z,21.33
2023-02-21T11:01:35.797Z,21.34
2023-02-21T11:04:03.561Z,21.35
2023-02-21T11:06:44.726Z,21.37
2023-02-21T11:09:36.591Z,21.38
2023-02-21T11:12:19.952Z,21.39
2023-02-21T11:15:05.106Z,21.41
2023-02-21T11:17:34.771Z,21.39
2023-02-21T11:20:03.747Z,21.29
2023-02-21T11:22:47.604Z,21.22
2023-02-21T11:25:26.433Z,21.23
2023-02-21T11:28:13.520Z,21.12
2023-02-21T11:30:45.372Z,21.22
2023-02-21T11:33:12.213Z,21.23
2023-02-21T11:35:47.329Z,21.20
2023-02-21T11:38:36.797Z,21.19
2023-02-21T11:41:19.175Z,21.12
2023-02-21T11:43:53.212Z,21.14
2023-02-21T11:46:45.080Z,21.11
2023-02-21T11:49:24.568Z,21.10
2023-02-21T11:51:56.247Z,21.07
2023-02-21T11:54:26.490Z,21.06
2023-02-21T11:57:23.958Z,21.02
2023-02-21T12:00:32.529Z,20.99
2023-02-21T12:03:24.715Z,20.96
2023-02-21T12:06:26.864Z,20.93
2023-02-21T12:09:16.681Z,20.88
2023-02-21T12:11:54.744Z,20.84
2023-02-21T12:14:33.707Z,20.83
2023-02-21T12:17:25.656Z,20.82
2023-02-21T12:20:07.392Z,20.81
2023-02-21T12:22:55.618Z,20.78
2023-02-21T12:25:44.686Z,20.75
2023-02-21T12:28:53.330Z,20.75
2023-02-21T12:31:31.324Z,20.72
2023-02-21T12:34:36.536Z,20.71
2023-02-21T12:37:24.629Z,20.69
2023-02-21T12:40:21.760Z,20.68
2023-02-21T12:43:01.982Z,20.66
2023-02-21T12:45:42.414Z,20.65
2023-02-21T12:48:18.126Z,20.64
2023-02-21T12:50:57.583Z,20.63
2023-02-21T12:53:36.077Z,20.62
2023-02-21T12:56:28.761Z,20.62
2023-02-21T12:59:10.389Z,20.59
2023-02-21T13:01:41.846Z,20.58
2023-02-21T13:04:52.953Z,20.57
2023-02-21T13:07:51.111Z,20.55
2023-02-21T13:10:30.480Z,20.55
2023-02-21T13:13:02.751Z,20.51
2023-02-21T13:15:34.804Z,20.54
2023-02-21T13:18:25.202Z,20.54
2023-02-21T13:20:57.924Z,20.50
2023-02-21T13:24:17.692Z,20.54
2023-02-21T13:27:32.196Z,20.54
2023-02-21T13:30:17.641Z,20.53
2023-02-21T13:33:03.405Z,20.52
2023-02-21T13:35:39.758Z,20.51
2023-02-21T13:38:10.522Z,20.50
2023-02-21T13:41:02.737Z,20.52
2023-02-21T13:43:33.157Z,20.51
2023-02-21T13:46:31.123Z,20.50
2023-02-21T13:49:35.537Z,20.51
2023-02-21T13:52:23.633Z,20.50
2023-02-21T13:55:17.986Z,20.52
2023-02-21T13:57:57.400Z,20.50
2023-02-21T14:00:24.162Z,20.50
2023-02-21T14:03:18.936Z,20.49
2023-02-21T14:05:45.946Z,20.46
2023-02-21T14:08:19.210Z,20.50
2023-02-21T14:10:50.333Z,20.49
2023-02-21T14:13:42.509Z,20.50
2023-02-21T14:16:10.671Z,20.50
2023-02-21T14:18:42.319Z,20.47
2023-02-21T14:21:31.552Z,20.49
2023-02-21T14:24:01.016Z,20.49
2023-02-21T14:26:51.841Z,20.47
2023-02-21T14:29:27.956Z,20.48
2023-02-21T14:32:04.075Z,20.45
2023-02-21T14:34:36.505Z,20.47
2023-02-21T14:37:12.040Z,20.46
2023-02-21T14:39:44.626Z,20.47
2023-02-21T14:42:20.448Z,20.48
2023-02-21T14:45:10.363Z,20.42
2023-02-21T14:47:55.879Z,20.48
2023-02-21T14:50:32.622Z,20.59
2023-02-21T14:53:13.784Z,20.64
2023-02-21T14:55:52.444Z,20.64
2023-02-21T14:58:40.842Z,20.51
2023-02-21T15:01:10.527Z,20.44
2023-02-21T15:04:21.126Z,20.39
2023-02-21T15:07:09.273Z,20.36
2023-02-21T15:09:35.969Z,20.35
2023-02-21T15:12:13.485Z,20.34
2023-02-21T15:14:41.859Z,20.35
2023-02-21T15:17:14.159Z,20.32
2023-02-21T15:19:46.078Z,20.32
2023-02-21T15:22:28.178Z,20.27
2023-02-21T15:25:01.179Z,20.23
2023-02-21T15:27:27.990Z,20.27
2023-02-21T15:30:30.293Z,20.29
2023-02-21T15:33:17.625Z,20.27
2023-02-21T15:35:47.379Z,20.25
2023-02-21T15:38:24.254Z,20.26
2023-02-21T15:40:51.196Z,20.26
2023-02-21T15:43:51.505Z,20.26
2023-02-21T15:46:21.747Z,20.23
2023-02-21T15:48:55.155Z,20.10
2023-02-21T15:51:21.789Z,20.12
2023-02-21T15:54:13.765Z,20.22
2023-02-21T15:56:42.539Z,20.20
2023-02-21T15:59:19.436Z,20.19
2023-02-21T16:01:46.302Z,20.25
2023-02-21T16:04:23.386Z,20.18
2023-02-21T16:06:57.697Z,20.23
2023-02-21T16:09:27.744Z,20.33
2023-02-21T16:12:19.126Z,20.27
2023-02-21T16:14:45.696Z,20.23
2023-02-21T16:17:24.472Z,20.25
2023-02-21T16:19:56.230Z,20.19
2023-02-21T16:22:24.948Z,20.23
2023-02-21T16:25:27.870Z,20.23
2023-02-21T16:28:00.268Z,20.23
2023-02-21T16:30:28.743Z,20.22
2023-02-21T16:33:02.182Z,20.21
2023-02-21T16:35:28.844Z,20.22
2023-02-21T16:37:59.642Z,20.21
2023-02-21T16:40:28.636Z,20.21
2023-02-21T16:42:55.817Z,20.21
2023-02-21T16:45:23.121Z,20.22
2023-02-21T16:47:52.990Z,20.23
2023-02-21T16:50:24.880Z,20.22
2023-02-21T16:52:51.501Z,20.23
2023-02-21T16:55:18.418Z,20.22
2023-02-21T16:57:53.909Z,20.22
2023-02-21T17:00:23.638Z,20.23
2023-02-21T17:02:50.660Z,20.25
2023-02-21T17:05:17.758Z,20.25
2023-02-21T17:07:44.525Z,20.24
2023-02-21T17:10:13.900Z,20.25
2023-02-21T17:12:40.616Z,20.24
2023-02-21T17:15:11.026Z,20.25
2023-02-21T17:17:46.336Z,20.25
2023-02-21T17:20:20.980Z,20.12
2023-02-21T17:22:49.813Z,20.25
2023-02-21T17:25:16.772Z,20.26
2023-02-21T17:27:46.055Z,20.25
2023-02-21T17:30:15.419Z,20.25
2023-02-21T17:32:42.253Z,20.26
2023-02-21T17:35:15.378Z,20.24
2023-02-21T17:37:45.828Z,20.24
2023-02-21T17:40:15.821Z,20.25
2023-02-21T17:42:44.734Z,20.17
2023-02-21T17:45:11.589Z,20.22
2023-02-21T17:47:38.426Z,20.24
2023-02-21T17:50:08.302Z,20.24
2023-02-21T17:52:35.473Z,20.25
2023-02-21T17:55:07.666Z,20.18
2023-02-21T17:57:38.542Z,20.25
2023-02-21T18:00:09.580Z,20.22
2023-02-21T18:02:37.445Z,20.22
2023-02-21T18:05:07.012Z,20.22
2023-02-21T18:07:35.835Z,20.23
2023-02-21T18:10:05.794Z,20.22
2023-02-21T18:12:34.837Z,20.22
2023-02-21T18:15:06.915Z,20.22
2023-02-21T18:17:33.659Z,20.18
2023-02-21T18:20:01.386Z,20.22
2023-02-21T18:22:32.945Z,20.22
2023-02-21T18:24:59.919Z,20.23
2023-02-21T18:27:26.549Z,20.22
2023-02-21T18:29:56.028Z,20.18
2023-02-21T18:32:27.614Z,20.18
2023-02-21T18:34:59.919Z,20.18
2023-02-21T18:37:28.766Z,20.18
2023-02-21T18:39:58.067Z,20.18
2023-02-21T18:42:27.513Z,20.19
2023-02-21T18:44:56.454Z,20.03
2023-02-21T18:47:25.194Z,20.16
2023-02-21T18:49:56.815Z,20.17
2023-02-21T18:52:23.540Z,20.15
2023-02-21T18:54:50.707Z,20.14
2023-02-21T18:57:18.252Z,20.16
2023-02-21T18:59:48.038Z,20.16
2023-02-21T19:02:16.313Z,20.14
2023-02-21T19:04:48.771Z,20.15
2023-02-21T19:07:18.670Z,20.14
2023-02-21T19:09:46.406Z,20.02
2023-02-21T19:12:13.042Z,20.13
2023-02-21T19:14:41.841Z,20.13
2023-02-21T19:17:11.138Z,20.02
2023-02-21T19:19:37.910Z,20.11
2023-02-21T19:22:09.712Z,20.11
2023-02-21T19:24:38.544Z,20.13
2023-02-21T19:27:10.234Z,20.12
2023-02-21T19:29:39.411Z,20.12
2023-02-21T19:32:08.460Z,19.97
2023-02-21T19:34:35.433Z,20.11
2023-02-21T19:37:04.345Z,20.08
2023-02-21T19:39:31.054Z,20.09
2023-02-21T19:42:00.014Z,20.09
2023-02-21T19:44:28.936Z,20.08
2023-02-21T19:46:55.986Z,20.09
2023-02-21T19:49:25.285Z,20.10
2023-02-21T19:51:52.733Z,20.09
2023-02-21T19:54:21.089Z,20.07
2023-02-21T19:56:50.015Z,20.04
2023-02-21T19:59:18.399Z,20.09
2023-02-21T20:01:45.148Z,20.08
2023-02-21T20:04:11.995Z,20.08
2023-02-21T20:06:38.767Z,20.10
2023-02-21T20:09:06.941Z,20.09
2023-02-21T20:11:35.773Z,20.08
2023-02-21T20:14:04.615Z,20.08
2023-02-21T20:16:33.630Z,20.07
2023-02-21T20:19:00.247Z,20.08
2023-02-21T20:21:30.525Z,20.04
2023-02-21T20:24:00.185Z,20.07
2023-02-21T20:26:29.534Z,20.06
2023-02-21T20:28:56.339Z,20.06
2023-02-21T20:31:28.241Z,20.07
2023-02-21T20:33:57.281Z,20.07
2023-02-21T20:36:31.186Z,20.06
2023-02-21T20:38:57.798Z,20.07
2023-02-21T20:41:31.601Z,20.06
2023-02-21T20:43:58.874Z,20.01
2023-02-21T20:46:28.822Z,20.04
2023-02-21T20:48:58.573Z,20.06
2023-02-21T20:51:30.090Z,20.04
2023-02-21T20:54:00.344Z,20.07
2023-02-21T20:56:36.475Z,20.06
2023-02-21T20:59:10.477Z,20.04
2023-02-21T21:01:37.187Z,20.02
2023-02-21T21:04:05.304Z,20.03
2023-02-21T21:06:32.096Z,20.00
2023-02-21T21:08:58.721Z,20.01
2023-02-21T21:11:28.810Z,20.01
2023-02-21T21:13:57.882Z,20.00
2023-02-21T21:16:26.705Z,19.99
2023-02-21T21:18:53.414Z,19.96
2023-02-21T21:21:21.547Z,19.96
2023-02-21T21:23:48.723Z,19.98
2023-02-21T21:26:15.369Z,20.04
2023-02-21T21:28:44.177Z,20.03
2023-02-21T21:31:10.945Z,20.00
2023-02-21T21:33:39.937Z,20.00
2023-02-21T21:36:10.086Z,20.00
2023-02-21T21:38:40.848Z,19.96
2023-02-21T21:41:13.687Z,19.97
2023-02-21T21:43:43.862Z,19.96
2023-02-21T21:46:13.438Z,19.98
2023-02-21T21:48:44.014Z,19.98
2023-02-21T21:51:11.077Z,19.97
2023-02-21T21:53:40.063Z,19.87
2023-02-21T21:56:07.874Z,19.98
2023-02-21T21:58:34.697Z,19.99
2023-02-21T22:01:07.365Z,19.98
2023-02-21T22:03:36.818Z,19.99
2023-02-21T22:06:05.644Z,19.98
2023-02-21T22:08:34.695Z,19.97
2023-02-21T22:11:01.386Z,19.97
2023-02-21T22:13:33.848Z,19.88
2023-02-21T22:16:03.339Z,19.96
2023-02-21T22:18:30.690Z,19.97
2023-02-21T22:20:59.170Z,19.99
2023-02-21T22:23:30.278Z,19.97
2023-02-21T22:25:59.136Z,19.96
2023-02-21T22:28:30.476Z,19.97
2023-02-21T22:30:59.435Z,19.95
2023-02-21T22:33:31.372Z,19.95
2023-02-21T22:36:03.796Z,19.94
2023-02-21T22:38:32.782Z,19.83
2023-02-21T22:41:00.061Z,19.93
2023-02-21T22:43:28.045Z,19.97
2023-02-21T22:46:00.947Z,19.94
2023-02-21T22:48:27.644Z,19.95
2023-02-21T22:50:56.374Z,19.96
2023-02-21T22:53:27.826Z,19.96
2023-02-21T22:55:58.999Z,19.85
2023-02-21T22:58:27.946Z,19.96
2023-02-21T23:01:00.291Z,19.96
2023-02-21T23:03:32.061Z,19.97
2023-02-21T23:06:02.095Z,19.95
2023-02-21T23:08:35.235Z,19.96
2023-02-21T23:11:07.564Z,19.95
2023-02-21T23:13:37.475Z,19.95
2023-02-21T23:16:04.342Z,19.98
2023-02-21T23:18:33.153Z,19.99
2023-02-21T23:21:04.706Z,18.80
2023-02-21T23:23:31.320Z,17.88
2023-02-21T23:26:01.157Z,17.25
2023-02-21T23:28:29.055Z,18.00
2023-02-21T23:30:57.918Z,18.53
2023-02-21T23:33:28.449Z,18.80
2023-02-21T23:36:00.315Z,18.92
2023-02-21T23:38:29.636Z,18.99
2023-02-21T23:40:57.938Z,19.05
2023-02-21T23:43:29.765Z,19.07
2023-02-21T23:46:01.671Z,19.11
2023-02-21T23:48:32.676Z,19.12
2023-02-21T23:50:59.571Z,19.14
2023-02-21T23:53:31.824Z,19.17
2023-02-21T23:56:00.515Z,19.15
2023-02-21T23:58:29.262Z,19.30
